createdAt,value
2017-03-03T00:00:05.106Z,1003.38
2017-03-03T00:00:45.758Z,1003.41
2017-03-03T00:01:26.505Z,1003.41
2017-03-03T00:02:07.138Z,1003.39
2017-03-03T00:02:47.785Z,1003.35
2017-03-03T00:03:28.444Z,1003.37
2017-03-03T00:04:09.076Z,1003.28
2017-03-03T00:04:49.721Z,1003.25
2017-03-03T00:05:30.384Z,1003.26
2017-03-03T00:06:11.009Z,1003.25
2017-03-03T00:06:51.647Z,1003.28
2017-03-03T00:07:32.342Z,1003.24
2017-03-03T00:08:12.969Z,1003.27
2017-03-03T00:08:53.620Z,1003.24
2017-03-03T00:09:34.342Z,1003.17
2017-03-03T00:10:15.028Z,1003.21
2017-03-03T00:10:55.667Z,1003.18
2017-03-03T00:11:36.310Z,1003.18
2017-03-03T00:12:17.014Z,1003.12
2017-03-03T00:12:57.727Z,1003.16
2017-03-03T00:13:38.344Z,1003.13
2017-03-03T00:14:19.042Z,1003.13
2017-03-03T00:14:59.754Z,1003.09
2017-03-03T00:15:40.401Z,1003.05
2017-03-03T00:16:21.037Z,1003.06
2017-03-03T00:17:01.702Z,1003.02
2017-03-03T00:17:42.342Z,1002.98
2017-03-03T00:18:22.972Z,1003
2017-03-03T00:19:03.697Z,1003
2017-03-03T00:19:44.336Z,1002.97
2017-03-03T00:20:25.000Z,1002.98
2017-03-03T00:21:05.711Z,1002.98
2017-03-03T00:21:46.332Z,1002.99
2017-03-03T00:22:27.019Z,1002.99
2017-03-03T00:23:07.685Z,1002.99
2017-03-03T00:23:48.407Z,1003
2017-03-03T00:24:29.054Z,1003.03
2017-03-03T00:25:10.548Z,1003.02
2017-03-03T00:25:51.175Z,1003.01
2017-03-03T00:26:31.819Z,1003.02
2017-03-03T00:27:12.526Z,1002.99
2017-03-03T00:27:54.024Z,1002.97
2017-03-03T00:28:34.725Z,1002.96
2017-03-03T00:29:15.371Z,1002.97
2017-03-03T00:29:56.004Z,1002.97
2017-03-03T00:30:36.636Z,1002.96
2017-03-03T00:31:17.398Z,1002.94
2017-03-03T00:31:58.044Z,1002.94
2017-03-03T00:32:38.668Z,1002.92
2017-03-03T00:33:19.322Z,1002.93
2017-03-03T00:33:59.957Z,1002.92
2017-03-03T00:34:40.603Z,1002.88
2017-03-03T00:35:21.236Z,1002.9
2017-03-03T00:36:01.883Z,1002.88
2017-03-03T00:36:42.533Z,1002.84
2017-03-03T00:37:23.178Z,1002.83
2017-03-03T00:38:03.807Z,1002.81
2017-03-03T00:38:44.449Z,1002.82
2017-03-03T00:39:25.093Z,1002.81
2017-03-03T00:40:05.738Z,1002.81
2017-03-03T00:40:46.392Z,1002.77
2017-03-03T00:41:27.133Z,1002.78
2017-03-03T00:42:07.829Z,1002.78
2017-03-03T00:42:48.462Z,1002.75
2017-03-03T00:43:29.168Z,1002.77
2017-03-03T00:44:09.891Z,1002.75
2017-03-03T00:44:50.526Z,1002.73
2017-03-03T00:45:31.168Z,1002.7
2017-03-03T00:46:11.855Z,1002.67
2017-03-03T00:46:52.486Z,1002.65
2017-03-03T00:47:33.129Z,1002.65
2017-03-03T00:48:13.810Z,1002.64
2017-03-03T00:48:54.448Z,1002.62
2017-03-03T00:49:35.087Z,1002.58
2017-03-03T00:50:15.727Z,1002.57
2017-03-03T00:50:56.357Z,1002.55
2017-03-03T00:51:36.992Z,1002.51
2017-03-03T00:52:17.660Z,1002.46
2017-03-03T00:52:58.308Z,1002.41
2017-03-03T00:53:38.964Z,1002.44
2017-03-03T00:54:19.626Z,1002.41
2017-03-03T00:55:00.311Z,1002.37
2017-03-03T00:55:40.955Z,1002.37
2017-03-03T00:56:21.620Z,1002.33
2017-03-03T00:57:02.325Z,1002.32
2017-03-03T00:57:43.036Z,1002.32
2017-03-03T00:58:23.604Z,1002.26
2017-03-03T00:59:04.264Z,1002.3
2017-03-03T00:59:44.897Z,1002.31
2017-03-03T01:00:25.595Z,1002.28
2017-03-03T01:01:06.293Z,1002.26
2017-03-03T01:01:46.993Z,1002.33
2017-03-03T01:02:27.627Z,1002.29
2017-03-03T01:03:08.272Z,1002.28
2017-03-03T01:03:48.907Z,1002.31
2017-03-03T01:04:29.556Z,1002.25
2017-03-03T01:05:10.270Z,1002.3
2017-03-03T01:05:50.913Z,1002.36
2017-03-03T01:06:31.552Z,1002.33
2017-03-03T01:07:12.273Z,1002.32
2017-03-03T01:07:53.004Z,1002.34
2017-03-03T01:08:33.702Z,1002.32
2017-03-03T01:09:14.340Z,1002.3
2017-03-03T01:09:54.991Z,1002.28
2017-03-03T01:10:35.657Z,1002.3
2017-03-03T01:11:16.289Z,1002.33
2017-03-03T01:11:56.991Z,1002.28
2017-03-03T01:12:37.739Z,1002.26
2017-03-03T01:13:18.379Z,1002.29
2017-03-03T01:13:59.058Z,1002.29
2017-03-03T01:14:39.802Z,1002.28
2017-03-03T01:15:20.435Z,1002.27
2017-03-03T01:16:01.066Z,1002.25
2017-03-03T01:16:41.816Z,1002.25
2017-03-03T01:17:22.474Z,1002.22
2017-03-03T01:18:03.120Z,1002.19
2017-03-03T01:18:43.839Z,1002.21
2017-03-03T01:19:24.513Z,1002.14
2017-03-03T01:20:05.157Z,1002.15
2017-03-03T01:20:45.799Z,1002.14
2017-03-03T01:21:26.426Z,1002.14
2017-03-03T01:22:07.135Z,1002.15
2017-03-03T01:22:47.786Z,1002.08
2017-03-03T01:23:28.414Z,1002.12
2017-03-03T01:24:09.098Z,1002.06
2017-03-03T01:24:49.752Z,1002.08
2017-03-03T01:25:30.448Z,1002.07
2017-03-03T01:26:11.119Z,1002.04
2017-03-03T01:26:51.766Z,1001.98
2017-03-03T01:27:32.390Z,1001.99
2017-03-03T01:28:13.127Z,1001.97
2017-03-03T01:28:53.756Z,1001.94
2017-03-03T01:29:34.405Z,1001.9
2017-03-03T01:30:15.044Z,1001.85
2017-03-03T01:30:55.677Z,1001.81
2017-03-03T01:31:36.343Z,1001.8
2017-03-03T01:32:17.022Z,1001.83
2017-03-03T01:32:57.672Z,1001.82
2017-03-03T01:33:38.347Z,1001.77
2017-03-03T01:34:18.996Z,1001.8
2017-03-03T01:34:59.692Z,1001.82
2017-03-03T01:35:40.339Z,1001.79
2017-03-03T01:36:21.039Z,1001.77
2017-03-03T01:37:01.812Z,1001.75
2017-03-03T01:37:42.471Z,1001.79
2017-03-03T01:38:23.109Z,1001.78
2017-03-03T01:39:03.734Z,1001.74
2017-03-03T01:39:44.370Z,1001.77
2017-03-03T01:40:25.065Z,1001.79
2017-03-03T01:41:05.733Z,1001.78
2017-03-03T01:41:46.417Z,1001.78
2017-03-03T01:42:27.074Z,1001.72
2017-03-03T01:43:07.768Z,1001.77
2017-03-03T01:43:48.399Z,1001.75
2017-03-03T01:44:29.054Z,1001.75
2017-03-03T01:45:09.694Z,1001.73
2017-03-03T01:45:50.325Z,1001.74
2017-03-03T01:46:30.959Z,1001.76
2017-03-03T01:47:11.612Z,1001.73
2017-03-03T01:47:52.242Z,1001.69
2017-03-03T01:48:32.871Z,1001.7
2017-03-03T01:49:13.499Z,1001.66
2017-03-03T01:49:54.178Z,1001.62
2017-03-03T01:50:34.800Z,1001.63
2017-03-03T01:51:15.425Z,1001.6
2017-03-03T01:51:56.073Z,1001.59
2017-03-03T01:52:36.718Z,1001.59
2017-03-03T01:53:17.395Z,1001.57
2017-03-03T01:53:58.025Z,1001.61
2017-03-03T01:54:38.678Z,1001.57
2017-03-03T01:55:19.362Z,1001.64
2017-03-03T01:56:00.105Z,1001.61
2017-03-03T01:56:40.752Z,1001.59
2017-03-03T01:57:21.456Z,1001.61
2017-03-03T01:58:02.087Z,1001.53
2017-03-03T01:58:42.743Z,1001.55
2017-03-03T01:59:23.374Z,1001.57
2017-03-03T02:00:04.004Z,1001.51
2017-03-03T02:00:44.709Z,1001.5
2017-03-03T02:01:25.365Z,1001.44
2017-03-03T02:02:06.029Z,1001.44
2017-03-03T02:02:46.651Z,1001.42
2017-03-03T02:03:27.279Z,1001.39
2017-03-03T02:04:07.992Z,1001.39
2017-03-03T02:04:48.652Z,1001.38
2017-03-03T02:05:29.281Z,1001.36
2017-03-03T02:06:09.942Z,1001.31
2017-03-03T02:06:50.709Z,1001.32
2017-03-03T02:07:31.459Z,1001.27
2017-03-03T02:08:11.972Z,1001.27
2017-03-03T02:08:52.717Z,1001.27
2017-03-03T02:09:33.369Z,1001.25
2017-03-03T02:10:13.995Z,1001.24
2017-03-03T02:10:54.638Z,1001.24
2017-03-03T02:11:35.297Z,1001.22
2017-03-03T02:12:15.922Z,1001.24
2017-03-03T02:12:56.561Z,1001.19
2017-03-03T02:13:37.219Z,1001.21
2017-03-03T02:14:17.857Z,1001.16
2017-03-03T02:14:58.481Z,1001.12
2017-03-03T02:15:39.155Z,1001.13
2017-03-03T02:16:19.785Z,1001.11
2017-03-03T02:17:00.508Z,1001.11
2017-03-03T02:17:41.132Z,1001.14
2017-03-03T02:18:21.764Z,1001.14
2017-03-03T02:19:02.399Z,1001.11
2017-03-03T02:19:43.034Z,1001.1
2017-03-03T02:20:23.660Z,1001.07
2017-03-03T02:21:04.360Z,1001.05
2017-03-03T02:21:45.100Z,1000.98
2017-03-03T02:22:25.775Z,1000.97
2017-03-03T02:23:06.421Z,1000.95
2017-03-03T02:23:47.159Z,1000.95
2017-03-03T02:24:27.807Z,1000.87
2017-03-03T02:25:08.439Z,1000.87
2017-03-03T02:25:49.118Z,1000.83
2017-03-03T02:26:29.764Z,1000.81
2017-03-03T02:27:10.413Z,1000.78
2017-03-03T02:27:51.090Z,1000.79
2017-03-03T02:28:31.724Z,1000.74
2017-03-03T02:29:12.351Z,1000.71
2017-03-03T02:29:52.991Z,1000.74
2017-03-03T02:30:33.618Z,1000.69
2017-03-03T02:31:14.253Z,1000.69
2017-03-03T02:31:54.931Z,1000.69
2017-03-03T02:32:35.561Z,1000.65
2017-03-03T02:33:16.195Z,1000.63
2017-03-03T02:33:56.817Z,1000.63
2017-03-03T02:34:37.449Z,1000.56
2017-03-03T02:35:18.078Z,1000.56
2017-03-03T02:35:58.734Z,1000.53
2017-03-03T02:36:39.389Z,1000.57
2017-03-03T02:37:20.018Z,1000.52
2017-03-03T02:38:00.724Z,1000.53
2017-03-03T02:38:41.388Z,1000.51
2017-03-03T02:39:22.035Z,1000.45
2017-03-03T02:40:02.675Z,1000.41
2017-03-03T02:40:43.306Z,1000.43
2017-03-03T02:41:23.949Z,1000.41
2017-03-03T02:42:04.597Z,1000.35
2017-03-03T02:42:45.303Z,1000.34
2017-03-03T02:43:25.928Z,1000.35
2017-03-03T02:44:06.555Z,1000.29
2017-03-03T02:44:47.202Z,1000.33
2017-03-03T02:45:27.818Z,1000.31
2017-03-03T02:46:08.599Z,1000.28
2017-03-03T02:46:49.254Z,1000.26
2017-03-03T02:47:29.884Z,1000.26
2017-03-03T02:48:10.516Z,1000.2
2017-03-03T02:48:51.146Z,1000.18
2017-03-03T02:49:31.840Z,1000.19
2017-03-03T02:50:12.486Z,1000.19
2017-03-03T02:50:53.129Z,1000.17
2017-03-03T02:51:33.813Z,1000.12
2017-03-03T02:52:14.443Z,1000.11
2017-03-03T02:52:55.063Z,1000.11
2017-03-03T02:53:35.793Z,1000.04
2017-03-03T02:54:16.437Z,1000.01
2017-03-03T02:54:57.123Z,999.98
2017-03-03T02:55:37.859Z,999.98
2017-03-03T02:56:18.614Z,999.91
2017-03-03T02:56:59.143Z,999.91
2017-03-03T02:57:39.893Z,999.88
2017-03-03T02:58:20.540Z,999.84
2017-03-03T02:59:01.168Z,999.88
2017-03-03T02:59:41.796Z,999.85
2017-03-03T03:00:22.468Z,999.79
2017-03-03T03:01:03.095Z,999.81
2017-03-03T03:01:43.730Z,999.85
2017-03-03T03:02:24.401Z,999.84
2017-03-03T03:03:05.034Z,999.81
2017-03-03T03:03:45.741Z,999.82
2017-03-03T03:04:26.379Z,999.83
2017-03-03T03:05:07.019Z,999.77
2017-03-03T03:05:47.694Z,999.74
2017-03-03T03:06:28.331Z,999.69
2017-03-03T03:07:08.950Z,999.68
2017-03-03T03:07:49.637Z,999.66
2017-03-03T03:08:30.320Z,999.62
2017-03-03T03:09:10.940Z,999.6
2017-03-03T03:09:51.627Z,999.6
2017-03-03T03:10:32.308Z,999.64
2017-03-03T03:11:12.998Z,999.63
2017-03-03T03:11:53.629Z,999.61
2017-03-03T03:12:34.264Z,999.57
2017-03-03T03:13:14.994Z,999.58
2017-03-03T03:13:55.641Z,999.54
2017-03-03T03:14:36.324Z,999.55
2017-03-03T03:15:16.954Z,999.51
2017-03-03T03:15:57.578Z,999.47
2017-03-03T03:16:38.251Z,999.49
2017-03-03T03:17:18.875Z,999.48
2017-03-03T03:17:59.500Z,999.47
2017-03-03T03:18:40.134Z,999.44
2017-03-03T03:19:20.769Z,999.47
2017-03-03T03:20:01.405Z,999.45
2017-03-03T03:20:42.113Z,999.43
2017-03-03T03:21:22.755Z,999.42
2017-03-03T03:22:03.374Z,999.43
2017-03-03T03:22:44.054Z,999.39
2017-03-03T03:23:24.707Z,999.39
2017-03-03T03:24:05.333Z,999.39
2017-03-03T03:24:45.958Z,999.39
2017-03-03T03:25:26.585Z,999.32
2017-03-03T03:26:07.211Z,999.31
2017-03-03T03:26:47.917Z,999.33
2017-03-03T03:27:28.544Z,999.27
2017-03-03T03:28:09.192Z,999.21
2017-03-03T03:28:49.826Z,999.2
2017-03-03T03:29:30.491Z,999.17
2017-03-03T03:30:11.109Z,999.15
2017-03-03T03:30:51.740Z,999.04
2017-03-03T03:31:32.413Z,999.05
2017-03-03T03:32:13.040Z,998.98
2017-03-03T03:32:53.668Z,998.91
2017-03-03T03:33:34.339Z,998.92
2017-03-03T03:34:14.967Z,998.93
2017-03-03T03:34:55.680Z,998.88
2017-03-03T03:35:36.321Z,998.92
2017-03-03T03:36:16.929Z,998.92
2017-03-03T03:36:57.671Z,998.94
2017-03-03T03:37:38.379Z,998.93
2017-03-03T03:38:19.604Z,998.89
2017-03-03T03:39:00.301Z,998.89
2017-03-03T03:39:40.967Z,998.87
2017-03-03T03:40:21.614Z,998.87
2017-03-03T03:41:02.261Z,998.85
2017-03-03T03:41:42.972Z,998.82
2017-03-03T03:42:23.600Z,998.74
2017-03-03T03:43:04.228Z,998.71
2017-03-03T03:43:44.880Z,998.66
2017-03-03T03:44:25.499Z,998.63
2017-03-03T03:45:06.238Z,998.64
2017-03-03T03:45:46.888Z,998.6
2017-03-03T03:46:27.499Z,998.54
2017-03-03T03:47:08.128Z,998.55
2017-03-03T03:47:48.755Z,998.54
2017-03-03T03:48:29.389Z,998.5
2017-03-03T03:49:10.056Z,998.52
2017-03-03T03:49:50.756Z,998.52
2017-03-03T03:50:31.380Z,998.54
2017-03-03T03:51:12.119Z,998.51
2017-03-03T03:51:52.801Z,998.51
2017-03-03T03:52:33.520Z,998.47
2017-03-03T03:53:14.159Z,998.47
2017-03-03T03:53:54.897Z,998.41
2017-03-03T03:54:37.685Z,998.41
2017-03-03T03:55:18.391Z,998.38
2017-03-03T03:55:59.031Z,998.37
2017-03-03T03:56:39.666Z,998.38
2017-03-03T03:57:20.361Z,998.32
2017-03-03T03:58:00.981Z,998.35
2017-03-03T03:58:41.673Z,998.29
2017-03-03T03:59:22.290Z,998.26
2017-03-03T04:00:02.931Z,998.26
2017-03-03T04:00:43.628Z,998.24
2017-03-03T04:01:24.303Z,998.22
2017-03-03T04:02:04.948Z,998.22
2017-03-03T04:02:45.665Z,998.24
2017-03-03T04:03:26.299Z,998.14
2017-03-03T04:04:06.928Z,998.2
2017-03-03T04:04:47.616Z,998.17
2017-03-03T04:05:28.254Z,998.19
2017-03-03T04:06:08.922Z,998.14
2017-03-03T04:06:49.545Z,998.1
2017-03-03T04:07:30.260Z,998.09
2017-03-03T04:08:10.929Z,998.09
2017-03-03T04:08:51.583Z,998.1
2017-03-03T04:09:32.210Z,998.1
2017-03-03T04:10:12.881Z,998.09
2017-03-03T04:10:53.505Z,998.05
2017-03-03T04:11:34.232Z,998.03
2017-03-03T04:12:14.947Z,998.04
2017-03-03T04:12:55.584Z,998.04
2017-03-03T04:13:36.219Z,998.04
2017-03-03T04:14:16.848Z,998.04
2017-03-03T04:14:57.474Z,998.04
2017-03-03T04:15:38.238Z,998.01
2017-03-03T04:16:18.976Z,998.02
2017-03-03T04:16:59.601Z,997.99
2017-03-03T04:17:40.232Z,997.98
2017-03-03T04:18:20.955Z,997.96
2017-03-03T04:19:01.614Z,997.91
2017-03-03T04:19:42.253Z,997.9
2017-03-03T04:20:22.901Z,997.96
2017-03-03T04:21:03.540Z,997.86
2017-03-03T04:21:44.185Z,997.88
2017-03-03T04:22:24.841Z,997.9
2017-03-03T04:23:05.460Z,997.85
2017-03-03T04:23:46.094Z,997.82
2017-03-03T04:24:26.768Z,997.8
2017-03-03T04:25:07.445Z,997.77
2017-03-03T04:25:48.071Z,997.79
2017-03-03T04:26:28.814Z,997.78
2017-03-03T04:27:09.462Z,997.79
2017-03-03T04:27:50.134Z,997.76
2017-03-03T04:28:30.785Z,997.68
2017-03-03T04:29:11.423Z,997.67
2017-03-03T04:29:52.058Z,997.68
2017-03-03T04:30:32.700Z,997.65
2017-03-03T04:31:13.334Z,997.62
2017-03-03T04:31:54.008Z,997.59
2017-03-03T04:32:34.628Z,997.58
2017-03-03T04:33:15.253Z,997.6
2017-03-03T04:33:55.950Z,997.59
2017-03-03T04:34:36.636Z,997.55
2017-03-03T04:35:17.319Z,997.53
2017-03-03T04:35:58.067Z,997.57
2017-03-03T04:36:38.729Z,997.54
2017-03-03T04:37:19.430Z,997.51
2017-03-03T04:38:00.126Z,997.52
2017-03-03T04:38:40.765Z,997.47
2017-03-03T04:39:21.392Z,997.43
2017-03-03T04:40:02.030Z,997.46
2017-03-03T04:40:42.695Z,997.41
2017-03-03T04:41:23.342Z,997.43
2017-03-03T04:42:04.052Z,997.43
2017-03-03T04:42:44.774Z,997.41
2017-03-03T04:43:25.417Z,997.47
2017-03-03T04:44:06.096Z,997.43
2017-03-03T04:44:46.734Z,997.41
2017-03-03T04:45:27.365Z,997.39
2017-03-03T04:46:08.020Z,997.35
2017-03-03T04:46:48.780Z,997.33
2017-03-03T04:47:29.492Z,997.28
2017-03-03T04:48:10.125Z,997.29
2017-03-03T04:48:50.807Z,997.24
2017-03-03T04:49:31.496Z,997.22
2017-03-03T04:50:12.120Z,997.23
2017-03-03T04:50:52.793Z,997.25
2017-03-03T04:51:33.495Z,997.28
2017-03-03T04:52:14.145Z,997.23
2017-03-03T04:52:54.753Z,997.26
2017-03-03T04:53:35.427Z,997.22
2017-03-03T04:54:16.068Z,997.16
2017-03-03T04:54:56.782Z,997.17
2017-03-03T04:55:37.457Z,997.16
2017-03-03T04:56:18.089Z,997.16
2017-03-03T04:56:58.714Z,997.13
2017-03-03T04:57:39.331Z,997.17
2017-03-03T04:58:20.021Z,997.1
2017-03-03T04:59:00.677Z,997.07
2017-03-03T04:59:41.337Z,997.11
2017-03-03T05:00:21.967Z,997.1
2017-03-03T05:01:02.590Z,997.05
2017-03-03T05:01:43.273Z,997.04
2017-03-03T05:02:23.906Z,997
2017-03-03T05:03:04.536Z,997.02
2017-03-03T05:03:45.169Z,996.94
2017-03-03T05:04:25.827Z,996.95
2017-03-03T05:05:06.452Z,997
2017-03-03T05:05:47.131Z,996.95
2017-03-03T05:06:27.763Z,996.97
2017-03-03T05:07:08.396Z,996.92
2017-03-03T05:07:49.060Z,996.92
2017-03-03T05:08:29.701Z,996.9
2017-03-03T05:09:10.322Z,996.94
2017-03-03T05:09:51.056Z,996.93
2017-03-03T05:10:31.747Z,996.95
2017-03-03T05:11:12.371Z,996.95
2017-03-03T05:11:53.079Z,996.94
2017-03-03T05:12:33.717Z,996.93
2017-03-03T05:13:14.368Z,996.87
2017-03-03T05:13:54.990Z,996.87
2017-03-03T05:14:35.733Z,996.87
2017-03-03T05:15:16.369Z,996.9
2017-03-03T05:15:57.000Z,996.83
2017-03-03T05:16:37.690Z,996.84
2017-03-03T05:17:18.331Z,996.93
2017-03-03T05:17:58.958Z,996.82
2017-03-03T05:18:39.639Z,996.88
2017-03-03T05:19:20.266Z,996.9
2017-03-03T05:20:00.898Z,996.85
2017-03-03T05:20:41.640Z,996.83
2017-03-03T05:21:22.320Z,996.85
2017-03-03T05:22:02.977Z,996.8
2017-03-03T05:22:43.632Z,996.8
2017-03-03T05:23:24.321Z,996.81
2017-03-03T05:24:04.955Z,996.79
2017-03-03T05:24:45.607Z,996.83
2017-03-03T05:25:26.269Z,996.86
2017-03-03T05:26:06.906Z,996.87
2017-03-03T05:26:47.531Z,996.85
2017-03-03T05:27:28.156Z,996.86
2017-03-03T05:28:08.796Z,996.82
2017-03-03T05:28:49.438Z,996.77
2017-03-03T05:29:30.186Z,996.87
2017-03-03T05:30:10.813Z,996.8
2017-03-03T05:30:51.450Z,996.78
2017-03-03T05:31:32.120Z,996.76
2017-03-03T05:32:12.747Z,996.73
2017-03-03T05:32:53.388Z,996.75
2017-03-03T05:33:34.060Z,996.75
2017-03-03T05:34:14.681Z,996.74
2017-03-03T05:34:55.312Z,996.73
2017-03-03T05:35:35.979Z,996.67
2017-03-03T05:36:16.605Z,996.68
2017-03-03T05:36:57.234Z,996.65
2017-03-03T05:37:37.940Z,996.63
2017-03-03T05:38:18.570Z,996.54
2017-03-03T05:38:59.200Z,996.64
2017-03-03T05:39:39.870Z,996.57
2017-03-03T05:40:20.519Z,996.64
2017-03-03T05:41:01.144Z,996.58
2017-03-03T05:41:41.830Z,996.59
2017-03-03T05:42:22.457Z,996.66
2017-03-03T05:43:03.101Z,996.75
2017-03-03T05:43:43.756Z,996.74
2017-03-03T05:44:24.382Z,996.72
2017-03-03T05:45:05.012Z,996.77
2017-03-03T05:45:45.677Z,996.84
2017-03-03T05:46:26.317Z,996.74
2017-03-03T05:47:06.954Z,996.86
2017-03-03T05:47:47.611Z,996.83
2017-03-03T05:48:28.347Z,996.92
2017-03-03T05:49:08.975Z,996.8
2017-03-03T05:49:49.650Z,996.86
2017-03-03T05:50:30.395Z,996.82
2017-03-03T05:51:11.038Z,996.82
2017-03-03T05:51:51.663Z,996.86
2017-03-03T05:52:32.292Z,996.83
2017-03-03T05:53:12.952Z,996.82
2017-03-03T05:53:53.598Z,996.8
2017-03-03T05:54:34.216Z,996.81
2017-03-03T05:55:14.896Z,996.89
2017-03-03T05:55:55.525Z,996.84
2017-03-03T05:56:36.226Z,996.84
2017-03-03T05:57:16.861Z,996.78
2017-03-03T05:57:57.480Z,996.77
2017-03-03T05:58:38.154Z,996.74
2017-03-03T05:59:18.785Z,996.69
2017-03-03T05:59:59.413Z,996.69
2017-03-03T06:00:40.091Z,996.7
2017-03-03T06:01:20.759Z,996.66
2017-03-03T06:02:01.396Z,996.66
2017-03-03T06:02:42.038Z,996.63
2017-03-03T06:03:22.682Z,996.53
2017-03-03T06:04:03.327Z,996.53
2017-03-03T06:04:43.958Z,996.47
2017-03-03T06:05:24.611Z,996.41
2017-03-03T06:06:05.265Z,996.37
2017-03-03T06:06:45.897Z,996.39
2017-03-03T06:07:26.641Z,996.36
2017-03-03T06:08:07.361Z,996.45
2017-03-03T06:08:48.011Z,996.32
2017-03-03T06:09:28.640Z,996.39
2017-03-03T06:10:09.349Z,996.34
2017-03-03T06:10:49.992Z,996.33
2017-03-03T06:11:30.665Z,996.39
2017-03-03T06:12:11.293Z,996.47
2017-03-03T06:12:51.927Z,996.53
2017-03-03T06:13:32.588Z,996.6
2017-03-03T06:14:13.208Z,996.61
2017-03-03T06:14:53.835Z,996.56
2017-03-03T06:15:34.512Z,996.63
2017-03-03T06:16:15.147Z,996.64
2017-03-03T06:16:55.782Z,996.62
2017-03-03T06:17:36.442Z,996.55
2017-03-03T06:18:17.125Z,996.59
2017-03-03T06:18:57.771Z,996.82
2017-03-03T06:19:38.409Z,996.83
2017-03-03T06:20:19.109Z,997.12
2017-03-03T06:20:59.752Z,997.08
2017-03-03T06:21:40.389Z,997.22
2017-03-03T06:22:21.045Z,996.98
2017-03-03T06:23:01.690Z,997.36
2017-03-03T06:23:42.367Z,997.31
2017-03-03T06:24:23.129Z,997.52
2017-03-03T06:25:03.764Z,997.46
2017-03-03T06:25:44.396Z,997.62
2017-03-03T06:26:25.029Z,997.41
2017-03-03T06:27:05.668Z,997.31
2017-03-03T06:27:46.293Z,997.63
2017-03-03T06:28:26.925Z,997.41
2017-03-03T06:29:07.616Z,997.9
2017-03-03T06:29:48.247Z,997.56
2017-03-03T06:30:28.872Z,997.3
2017-03-03T06:31:09.525Z,997.24
2017-03-03T06:31:50.147Z,997.47
2017-03-03T06:32:30.767Z,997.37
2017-03-03T06:33:11.444Z,997.28
2017-03-03T06:33:52.084Z,997.12
2017-03-03T06:34:32.718Z,997.33
2017-03-03T06:35:13.354Z,997.23
2017-03-03T06:35:53.979Z,997.21
2017-03-03T06:36:34.613Z,997.79
2017-03-03T06:37:15.246Z,997.28
2017-03-03T06:37:55.892Z,997.27
2017-03-03T06:38:36.547Z,997.34
2017-03-03T06:39:17.222Z,997.3
2017-03-03T06:39:57.851Z,997.48
2017-03-03T06:40:38.492Z,997.4
2017-03-03T06:41:19.214Z,997.52
2017-03-03T06:41:59.841Z,997.28
2017-03-03T06:42:40.539Z,997.38
2017-03-03T06:43:21.197Z,997.45
2017-03-03T06:44:01.831Z,997.57
2017-03-03T06:44:42.455Z,997.59
2017-03-03T06:45:23.137Z,997.59
2017-03-03T06:46:03.775Z,997.42
2017-03-03T06:46:44.484Z,997.72
2017-03-03T06:47:25.166Z,997.65
2017-03-03T06:48:05.827Z,997.64
2017-03-03T06:48:46.432Z,997.75
2017-03-03T06:49:27.089Z,997.45
2017-03-03T06:50:07.806Z,997.57
2017-03-03T06:50:48.456Z,997.56
2017-03-03T06:51:29.079Z,997.71
2017-03-03T06:52:09.710Z,997.47
2017-03-03T06:52:50.358Z,997.48
2017-03-03T06:53:31.068Z,997.33
2017-03-03T06:54:11.714Z,997.33
2017-03-03T06:54:52.347Z,997.81
2017-03-03T06:55:33.035Z,997.46
2017-03-03T06:56:13.716Z,997.7
2017-03-03T06:56:54.337Z,997.39
2017-03-03T06:57:35.010Z,997.38
2017-03-03T06:58:15.631Z,997.36
2017-03-03T06:58:56.263Z,997.51
2017-03-03T06:59:36.944Z,997.68
2017-03-03T07:00:17.599Z,997.48
2017-03-03T07:00:58.223Z,997.55
2017-03-03T07:01:38.926Z,997.54
2017-03-03T07:02:19.602Z,997.6
2017-03-03T07:03:00.236Z,997.56
2017-03-03T07:03:40.918Z,997.63
2017-03-03T07:04:21.633Z,997.73
2017-03-03T07:05:02.328Z,997.65
2017-03-03T07:05:42.960Z,997.88
2017-03-03T07:06:23.676Z,997.77
2017-03-03T07:07:04.330Z,997.99
2017-03-03T07:07:44.951Z,997.95
2017-03-03T07:08:25.605Z,997.84
2017-03-03T07:09:06.257Z,997.87
2017-03-03T07:09:46.892Z,997.81
2017-03-03T07:10:27.601Z,997.82
2017-03-03T07:11:08.323Z,997.9
2017-03-03T07:11:48.954Z,997.8
2017-03-03T07:12:29.587Z,997.87
2017-03-03T07:13:10.214Z,998.18
2017-03-03T07:13:50.889Z,997.9
2017-03-03T07:14:31.534Z,997.94
2017-03-03T07:15:12.167Z,997.95
2017-03-03T07:15:52.812Z,997.98
2017-03-03T07:16:33.442Z,998.03
2017-03-03T07:17:14.127Z,998.02
2017-03-03T07:17:54.759Z,998.11
2017-03-03T07:18:35.393Z,998.4
2017-03-03T07:19:16.027Z,998
2017-03-03T07:19:56.714Z,997.94
2017-03-03T07:20:37.337Z,998.04
2017-03-03T07:21:18.065Z,997.95
2017-03-03T07:21:58.745Z,997.91
2017-03-03T07:22:39.379Z,998.23
2017-03-03T07:23:20.031Z,997.96
2017-03-03T07:24:00.722Z,998.04
2017-03-03T07:24:41.358Z,997.95
2017-03-03T07:25:22.009Z,997.91
2017-03-03T07:26:02.643Z,997.94
2017-03-03T07:26:43.271Z,998.19
2017-03-03T07:27:23.940Z,998.09
2017-03-03T07:28:04.569Z,997.9
2017-03-03T07:28:45.201Z,997.95
2017-03-03T07:29:25.840Z,998.04
2017-03-03T07:30:06.506Z,998.05
2017-03-03T07:30:47.130Z,998.03
2017-03-03T07:31:27.839Z,998.07
2017-03-03T07:32:08.468Z,998
2017-03-03T07:32:49.140Z,998.02
2017-03-03T07:33:29.757Z,997.99
2017-03-03T07:34:10.392Z,997.98
2017-03-03T07:34:51.105Z,998.13
2017-03-03T07:35:31.798Z,997.97
2017-03-03T07:36:12.501Z,998.01
2017-03-03T07:36:53.170Z,998
2017-03-03T07:37:33.812Z,997.97
2017-03-03T07:38:14.458Z,997.97
2017-03-03T07:38:55.171Z,998
2017-03-03T07:39:35.810Z,997.97
2017-03-03T07:40:16.498Z,997.99
2017-03-03T07:40:57.202Z,998
2017-03-03T07:41:37.838Z,997.98
2017-03-03T07:42:18.473Z,997.91
2017-03-03T07:42:59.115Z,997.95
2017-03-03T07:43:39.766Z,998.02
2017-03-03T07:44:20.417Z,998
2017-03-03T07:45:01.042Z,998.07
2017-03-03T07:45:41.738Z,998.04
2017-03-03T07:46:22.366Z,998.11
2017-03-03T07:47:02.991Z,998.06
2017-03-03T07:47:43.664Z,998.13
2017-03-03T07:48:24.290Z,998.14
2017-03-03T07:49:04.915Z,998.09
2017-03-03T07:49:45.595Z,998.11
2017-03-03T07:50:26.221Z,998.1
2017-03-03T07:51:06.873Z,998.07
2017-03-03T07:51:47.525Z,998.12
2017-03-03T07:52:28.167Z,998.08
2017-03-03T07:53:08.865Z,998.09
2017-03-03T07:53:49.594Z,998.14
2017-03-03T07:54:30.227Z,998.11
2017-03-03T07:55:10.891Z,998.13
2017-03-03T07:55:51.529Z,998.2
2017-03-03T07:56:32.167Z,998.11
2017-03-03T07:57:12.879Z,998.13
2017-03-03T07:57:53.508Z,998.09
2017-03-03T07:58:34.160Z,998.16
2017-03-03T07:59:14.839Z,998.12
2017-03-03T07:59:55.470Z,998.09
2017-03-03T08:00:36.131Z,998.18
2017-03-03T08:01:16.773Z,998.21
2017-03-03T08:01:57.417Z,998.27
2017-03-03T08:02:38.105Z,998.28
2017-03-03T08:03:18.743Z,998.26
2017-03-03T08:03:59.460Z,998.25
2017-03-03T08:04:40.125Z,998.2
2017-03-03T08:05:20.758Z,998.35
2017-03-03T08:06:01.409Z,998.33
2017-03-03T08:06:42.150Z,998.39
2017-03-03T08:07:22.776Z,998.45
2017-03-03T08:08:03.402Z,998.5
2017-03-03T08:08:44.042Z,998.42
2017-03-03T08:09:24.674Z,998.49
2017-03-03T08:10:05.364Z,998.62
2017-03-03T08:10:46.002Z,998.55
2017-03-03T08:11:26.651Z,998.46
2017-03-03T08:12:07.307Z,998.54
2017-03-03T08:12:47.938Z,998.63
2017-03-03T08:13:28.597Z,998.47
2017-03-03T08:14:09.258Z,998.49
2017-03-03T08:14:49.894Z,998.4
2017-03-03T08:15:30.567Z,998.38
2017-03-03T08:16:11.223Z,998.34
2017-03-03T08:16:51.919Z,998.22
2017-03-03T08:17:32.551Z,998.3
2017-03-03T08:18:13.172Z,998.26
2017-03-03T08:18:53.898Z,998.27
2017-03-03T08:19:34.556Z,998.25
2017-03-03T08:20:15.191Z,998.19
2017-03-03T08:20:55.888Z,998.24
2017-03-03T08:21:36.524Z,998.15
2017-03-03T08:22:17.150Z,998.23
2017-03-03T08:22:57.795Z,998.21
2017-03-03T08:23:38.460Z,998.23